WLF905 FZAA-FCPP
Flight info
| Callsign | WLF905 |
|---|---|
| Flight time | 1h 28m |
| Altitude | 6000 |
| Route | KSA DCT IT |
| Aircraft | BE58/L-SDFGRY/C |
Departure
| Time | 2026-05-04 17:42 |
|---|---|
| Airport | Ndjili International Airport (FZAA) |
Arrival
| Time | 2026-05-04 19:10 |
|---|---|
| Airport | Antonio Agostinho-Neto International Airport (FCPP) |
| Time | Latitude | Longitude | Altitude | Speed | Heading |
|---|---|---|---|---|---|
| 2026-05-04 17:14 | -4.39123 | 15.44114 | 1012 ft | 0 kts | 142° |
| 2026-05-04 17:35 | -4.39131 | 15.44120 | 1012 ft | 0 kts | 134° |
| 2026-05-04 17:35 | -4.39132 | 15.44127 | 1012 ft | 0 kts | 71° |
| 2026-05-04 17:36 | -4.39132 | 15.44128 | 1012 ft | 1 kts | 68° |
| 2026-05-04 17:36 | -4.39103 | 15.44152 | 1012 ft | 9 kts | 351° |
| 2026-05-04 17:37 | -4.39084 | 15.44140 | 1012 ft | 0 kts | 319° |
| 2026-05-04 17:37 | -4.39078 | 15.44134 | 1012 ft | 4 kts | 319° |
| 2026-05-04 17:37 | -4.39048 | 15.44137 | 1013 ft | 8 kts | 53° |
| 2026-05-04 17:37 | -4.38984 | 15.44178 | 1013 ft | 13 kts | 30° |
| 2026-05-04 17:38 | -4.38924 | 15.44259 | 1013 ft | 17 kts | 57° |
| 2026-05-04 17:38 | -4.38849 | 15.44374 | 1014 ft | 20 kts | 62° |
| 2026-05-04 17:38 | -4.38781 | 15.44491 | 1015 ft | 16 kts | 56° |
| 2026-05-04 17:38 | -4.38701 | 15.44530 | 1016 ft | 12 kts | 329° |
| 2026-05-04 17:39 | -4.38638 | 15.44490 | 1017 ft | 0 kts | 327° |
| 2026-05-04 17:39 | -4.38634 | 15.44487 | 1017 ft | 3 kts | 327° |
| 2026-05-04 17:39 | -4.38592 | 15.44459 | 1016 ft | 11 kts | 309° |
| 2026-05-04 17:40 | -4.38596 | 15.44417 | 1016 ft | 0 kts | 235° |
| 2026-05-04 17:40 | -4.38597 | 15.44416 | 1016 ft | 1 kts | 235° |
| 2026-05-04 17:40 | -4.38640 | 15.44351 | 1015 ft | 33 kts | 238° |
| 2026-05-04 17:40 | -4.38926 | 15.43913 | 1034 ft | 109 kts | 236° |
| 2026-05-04 17:41 | -4.39389 | 15.43223 | 1274 ft | 126 kts | 237° |
| 2026-05-04 17:41 | -4.39855 | 15.42461 | 1510 ft | 129 kts | 245° |
| 2026-05-04 17:41 | -4.39809 | 15.41546 | 1502 ft | 143 kts | 302° |
| 2026-05-04 17:41 | -4.39350 | 15.40715 | 1611 ft | 141 kts | 266° |
| 2026-05-04 17:42 | -4.39650 | 15.39743 | 1669 ft | 139 kts | 252° |
| 2026-05-04 17:42 | -4.39943 | 15.38872 | 1934 ft | 131 kts | 249° |
| 2026-05-04 17:42 | -4.40345 | 15.38010 | 1942 ft | 139 kts | 240° |
| 2026-05-04 17:42 | -4.40893 | 15.37242 | 2109 ft | 133 kts | 230° |
| 2026-05-04 17:43 | -4.41247 | 15.36410 | 2268 ft | 132 kts | 260° |
| 2026-05-04 17:43 | -4.41362 | 15.35508 | 2436 ft | 131 kts | 261° |
| 2026-05-04 17:43 | -4.41372 | 15.34604 | 2606 ft | 131 kts | 280° |
| 2026-05-04 17:43 | -4.41279 | 15.33707 | 2762 ft | 129 kts | 264° |
| 2026-05-04 17:44 | -4.41368 | 15.32788 | 2929 ft | 136 kts | 262° |
| 2026-05-04 17:44 | -4.41475 | 15.31804 | 2993 ft | 149 kts | 261° |
| 2026-05-04 17:44 | -4.41597 | 15.30754 | 3006 ft | 154 kts | 262° |
| 2026-05-04 17:44 | -4.41728 | 15.29669 | 3010 ft | 159 kts | 261° |
| 2026-05-04 17:45 | -4.41861 | 15.28571 | 3007 ft | 156 kts | 261° |
| 2026-05-04 17:45 | -4.41988 | 15.27515 | 3023 ft | 149 kts | 261° |
| 2026-05-04 17:45 | -4.42116 | 15.26483 | 3021 ft | 153 kts | 260° |
| 2026-05-04 17:45 | -4.42248 | 15.25401 | 3031 ft | 159 kts | 261° |
| 2026-05-04 17:46 | -4.42383 | 15.24283 | 3031 ft | 163 kts | 261° |
| 2026-05-04 17:46 | -4.42520 | 15.23153 | 3031 ft | 163 kts | 261° |
| 2026-05-04 17:46 | -4.42656 | 15.22021 | 3033 ft | 164 kts | 261° |
| 2026-05-04 17:46 | -4.42797 | 15.20874 | 3036 ft | 169 kts | 262° |
| 2026-05-04 17:47 | -4.42944 | 15.19667 | 3033 ft | 179 kts | 261° |
| 2026-05-04 17:47 | -4.43093 | 15.18425 | 3033 ft | 181 kts | 262° |
| 2026-05-04 17:47 | -4.43246 | 15.17165 | 3034 ft | 183 kts | 262° |
| 2026-05-04 17:47 | -4.43401 | 15.15897 | 3034 ft | 184 kts | 262° |
| 2026-05-04 17:48 | -4.43555 | 15.14629 | 3031 ft | 183 kts | 262° |
| 2026-05-04 17:48 | -4.43708 | 15.13359 | 3032 ft | 183 kts | 261° |
| 2026-05-04 17:48 | -4.43863 | 15.12088 | 3034 ft | 184 kts | 262° |
| 2026-05-04 17:48 | -4.44018 | 15.10815 | 3036 ft | 185 kts | 262° |
| 2026-05-04 17:49 | -4.44173 | 15.09538 | 3039 ft | 184 kts | 262° |
| 2026-05-04 17:49 | -4.44327 | 15.08271 | 3036 ft | 184 kts | 261° |
| 2026-05-04 17:49 | -4.44481 | 15.06994 | 3039 ft | 184 kts | 262° |
| 2026-05-04 17:49 | -4.44636 | 15.05724 | 3040 ft | 184 kts | 261° |
| 2026-05-04 17:50 | -4.44790 | 15.04452 | 3040 ft | 185 kts | 262° |
| 2026-05-04 17:50 | -4.44946 | 15.03172 | 3041 ft | 185 kts | 261° |
| 2026-05-04 17:50 | -4.45101 | 15.01892 | 3041 ft | 185 kts | 261° |
| 2026-05-04 17:50 | -4.45256 | 15.00614 | 3043 ft | 185 kts | 261° |
| 2026-05-04 17:51 | -4.45411 | 14.99336 | 3047 ft | 185 kts | 262° |
| 2026-05-04 17:51 | -4.45566 | 14.98055 | 3049 ft | 185 kts | 262° |
| 2026-05-04 17:51 | -4.45722 | 14.96771 | 3047 ft | 185 kts | 262° |
| 2026-05-04 17:51 | -4.45878 | 14.95492 | 3046 ft | 185 kts | 262° |
| 2026-05-04 17:52 | -4.46031 | 14.94216 | 3041 ft | 184 kts | 262° |
| 2026-05-04 17:52 | -4.46186 | 14.92943 | 3049 ft | 184 kts | 262° |
| 2026-05-04 17:52 | -4.46338 | 14.91688 | 3047 ft | 185 kts | 261° |
| 2026-05-04 17:52 | -4.46493 | 14.90409 | 3048 ft | 185 kts | 261° |
| 2026-05-04 17:53 | -4.46647 | 14.89130 | 3050 ft | 185 kts | 261° |
| 2026-05-04 17:53 | -4.46801 | 14.87858 | 3053 ft | 184 kts | 261° |
| 2026-05-04 17:53 | -4.46957 | 14.86583 | 3049 ft | 185 kts | 261° |
| 2026-05-04 17:53 | -4.47111 | 14.85307 | 3049 ft | 184 kts | 262° |
| 2026-05-04 17:54 | -4.47266 | 14.84030 | 3046 ft | 185 kts | 262° |
| 2026-05-04 17:54 | -4.47420 | 14.82755 | 3045 ft | 184 kts | 262° |
| 2026-05-04 17:54 | -4.47573 | 14.81485 | 3044 ft | 183 kts | 261° |
| 2026-05-04 17:54 | -4.47727 | 14.80219 | 3038 ft | 183 kts | 262° |
| 2026-05-04 17:55 | -4.47879 | 14.78960 | 3037 ft | 181 kts | 262° |
| 2026-05-04 17:55 | -4.48031 | 14.77704 | 3039 ft | 182 kts | 262° |
| 2026-05-04 17:55 | -4.48183 | 14.76448 | 3039 ft | 181 kts | 261° |
| 2026-05-04 17:55 | -4.48283 | 14.75618 | 3044 ft | 182 kts | 261° |
| 2026-05-04 17:56 | -4.48436 | 14.74361 | 3043 ft | 181 kts | 261° |
| 2026-05-04 17:56 | -4.48586 | 14.73109 | 3041 ft | 180 kts | 261° |
| 2026-05-04 17:56 | -4.48737 | 14.71862 | 3047 ft | 181 kts | 261° |
| 2026-05-04 17:56 | -4.48891 | 14.70597 | 3048 ft | 184 kts | 261° |
| 2026-05-04 17:57 | -4.49045 | 14.69325 | 3046 ft | 184 kts | 261° |
| 2026-05-04 17:57 | -4.49197 | 14.68054 | 3048 ft | 183 kts | 261° |
| 2026-05-04 17:57 | -4.49351 | 14.66788 | 3046 ft | 183 kts | 261° |
| 2026-05-04 17:57 | -4.49503 | 14.65526 | 3046 ft | 183 kts | 261° |
| 2026-05-04 17:58 | -4.49657 | 14.64260 | 3048 ft | 183 kts | 262° |
| 2026-05-04 17:58 | -4.49809 | 14.62990 | 3046 ft | 183 kts | 262° |
| 2026-05-04 17:58 | -4.49961 | 14.61727 | 3047 ft | 182 kts | 261° |
| 2026-05-04 17:58 | -4.50114 | 14.60472 | 3046 ft | 180 kts | 262° |
| 2026-05-04 17:59 | -4.50266 | 14.59224 | 3045 ft | 181 kts | 261° |
| 2026-05-04 17:59 | -4.50417 | 14.57968 | 3048 ft | 182 kts | 261° |
| 2026-05-04 17:59 | -4.50722 | 14.55431 | 3051 ft | 184 kts | 261° |
| 2026-05-04 18:00 | -4.50876 | 14.54161 | 3050 ft | 183 kts | 261° |
| 2026-05-04 18:00 | -4.51029 | 14.52894 | 3050 ft | 183 kts | 261° |
| 2026-05-04 18:00 | -4.51179 | 14.51642 | 3045 ft | 179 kts | 261° |
| 2026-05-04 18:00 | -4.51329 | 14.50399 | 3049 ft | 181 kts | 262° |
| 2026-05-04 18:01 | -4.51482 | 14.49141 | 3051 ft | 183 kts | 261° |
| 2026-05-04 18:01 | -4.51633 | 14.47879 | 3049 ft | 182 kts | 261° |
| 2026-05-04 18:01 | -4.51784 | 14.46624 | 3051 ft | 181 kts | 261° |
| 2026-05-04 18:02 | -4.52088 | 14.44112 | 3049 ft | 183 kts | 261° |
| 2026-05-04 18:02 | -4.52240 | 14.42843 | 3051 ft | 184 kts | 261° |
| 2026-05-04 18:02 | -4.52393 | 14.41569 | 3047 ft | 184 kts | 261° |
| 2026-05-04 18:02 | -4.52546 | 14.40304 | 3051 ft | 183 kts | 261° |
| 2026-05-04 18:03 | -4.52697 | 14.39045 | 3045 ft | 181 kts | 261° |
| 2026-05-04 18:03 | -4.52849 | 14.37786 | 3047 ft | 183 kts | 261° |
| 2026-05-04 18:03 | -4.53001 | 14.36524 | 3049 ft | 183 kts | 261° |
| 2026-05-04 18:03 | -4.53155 | 14.35249 | 3048 ft | 185 kts | 261° |
| 2026-05-04 18:04 | -4.53309 | 14.33970 | 3054 ft | 185 kts | 261° |
| 2026-05-04 18:04 | -4.53462 | 14.32693 | 3056 ft | 184 kts | 261° |
| 2026-05-04 18:04 | -4.53769 | 14.30143 | 3055 ft | 185 kts | 262° |
| 2026-05-04 18:05 | -4.53923 | 14.28866 | 3051 ft | 184 kts | 262° |
| 2026-05-04 18:05 | -4.54073 | 14.27617 | 3047 ft | 182 kts | 262° |
| 2026-05-04 18:05 | -4.54224 | 14.26359 | 3047 ft | 182 kts | 262° |
| 2026-05-04 18:05 | -4.54374 | 14.25107 | 3047 ft | 180 kts | 261° |
| 2026-05-04 18:06 | -4.54676 | 14.22602 | 3043 ft | 182 kts | 262° |
| 2026-05-04 18:06 | -4.54827 | 14.21345 | 3042 ft | 182 kts | 261° |
| 2026-05-04 18:06 | -4.54978 | 14.20084 | 3038 ft | 182 kts | 261° |
| 2026-05-04 18:07 | -4.55130 | 14.18825 | 3044 ft | 182 kts | 261° |
| 2026-05-04 18:07 | -4.55282 | 14.17566 | 3044 ft | 182 kts | 261° |
| 2026-05-04 18:07 | -4.55433 | 14.16298 | 3047 ft | 185 kts | 261° |
| 2026-05-04 18:07 | -4.55587 | 14.15023 | 3049 ft | 185 kts | 261° |
| 2026-05-04 18:08 | -4.55741 | 14.13743 | 3045 ft | 184 kts | 261° |
| 2026-05-04 18:08 | -4.55893 | 14.12472 | 3047 ft | 184 kts | 261° |
| 2026-05-04 18:08 | -4.56046 | 14.11198 | 3047 ft | 185 kts | 261° |
| 2026-05-04 18:08 | -4.56198 | 14.09922 | 3050 ft | 185 kts | 262° |
| 2026-05-04 18:09 | -4.56507 | 14.07356 | 3049 ft | 186 kts | 262° |
| 2026-05-04 18:09 | -4.56812 | 14.04815 | 3048 ft | 183 kts | 261° |
| 2026-05-04 18:10 | -4.56965 | 14.03547 | 3045 ft | 183 kts | 262° |
| 2026-05-04 18:10 | -4.57116 | 14.02276 | 3047 ft | 185 kts | 262° |
| 2026-05-04 18:10 | -4.57269 | 14.00997 | 3047 ft | 184 kts | 261° |
| 2026-05-04 18:10 | -4.57424 | 13.99717 | 3047 ft | 185 kts | 261° |
| 2026-05-04 18:11 | -4.57577 | 13.98437 | 3048 ft | 185 kts | 261° |
| 2026-05-04 18:11 | -4.57728 | 13.97175 | 3050 ft | 185 kts | 262° |
| 2026-05-04 18:11 | -4.57879 | 13.95902 | 3051 ft | 184 kts | 262° |
| 2026-05-04 18:11 | -4.58035 | 13.94622 | 3049 ft | 185 kts | 261° |
| 2026-05-04 18:12 | -4.58187 | 13.93345 | 3043 ft | 183 kts | 262° |
| 2026-05-04 18:12 | -4.58336 | 13.92086 | 3034 ft | 181 kts | 262° |
| 2026-05-04 18:12 | -4.58485 | 13.90835 | 3041 ft | 181 kts | 261° |
| 2026-05-04 18:12 | -4.58640 | 13.89585 | 3036 ft | 181 kts | 262° |
| 2026-05-04 18:13 | -4.58789 | 13.88332 | 3033 ft | 181 kts | 262° |
| 2026-05-04 18:13 | -4.58938 | 13.87073 | 3040 ft | 183 kts | 261° |
| 2026-05-04 18:13 | -4.59237 | 13.84568 | 3045 ft | 182 kts | 262° |
| 2026-05-04 18:14 | -4.59390 | 13.83302 | 3045 ft | 184 kts | 262° |
| 2026-05-04 18:14 | -4.59543 | 13.82025 | 3045 ft | 185 kts | 262° |
| 2026-05-04 18:14 | -4.59695 | 13.80743 | 3049 ft | 186 kts | 262° |
| 2026-05-04 18:15 | -4.60003 | 13.78170 | 3047 ft | 186 kts | 262° |
| 2026-05-04 18:15 | -4.60307 | 13.75621 | 3049 ft | 186 kts | 262° |
| 2026-05-04 18:15 | -4.60461 | 13.74336 | 3047 ft | 185 kts | 262° |
| 2026-05-04 18:16 | -4.60615 | 13.73054 | 3042 ft | 185 kts | 262° |
| 2026-05-04 18:16 | -4.60767 | 13.71778 | 3043 ft | 184 kts | 262° |
| 2026-05-04 18:16 | -4.60918 | 13.70508 | 3037 ft | 182 kts | 262° |
| 2026-05-04 18:17 | -4.61221 | 13.67984 | 3040 ft | 183 kts | 262° |
| 2026-05-04 18:17 | -4.61371 | 13.66716 | 3037 ft | 183 kts | 262° |
| 2026-05-04 18:17 | -4.61674 | 13.64182 | 3040 ft | 183 kts | 262° |
| 2026-05-04 18:18 | -4.61825 | 13.62915 | 3041 ft | 183 kts | 262° |
| 2026-05-04 18:18 | -4.61977 | 13.61647 | 3044 ft | 184 kts | 261° |
| 2026-05-04 18:18 | -4.62129 | 13.60376 | 3043 ft | 184 kts | 261° |
| 2026-05-04 18:18 | -4.62281 | 13.59098 | 3043 ft | 184 kts | 262° |
| 2026-05-04 18:19 | -4.62585 | 13.56546 | 3044 ft | 185 kts | 262° |
| 2026-05-04 18:19 | -4.62738 | 13.55268 | 3044 ft | 185 kts | 262° |
| 2026-05-04 18:19 | -4.62890 | 13.53986 | 3043 ft | 186 kts | 262° |
| 2026-05-04 18:20 | -4.63043 | 13.52702 | 3043 ft | 186 kts | 262° |
| 2026-05-04 18:20 | -4.63196 | 13.51420 | 3041 ft | 185 kts | 262° |
| 2026-05-04 18:20 | -4.63348 | 13.50142 | 3043 ft | 184 kts | 262° |
| 2026-05-04 18:20 | -4.63501 | 13.48866 | 3036 ft | 185 kts | 262° |
| 2026-05-04 18:21 | -4.63653 | 13.47588 | 3034 ft | 185 kts | 262° |
| 2026-05-04 18:21 | -4.63804 | 13.46314 | 3034 ft | 184 kts | 262° |
| 2026-05-04 18:21 | -4.63957 | 13.45039 | 3036 ft | 185 kts | 262° |
| 2026-05-04 18:21 | -4.64109 | 13.43758 | 3037 ft | 185 kts | 262° |
| 2026-05-04 18:22 | -4.64262 | 13.42475 | 3040 ft | 186 kts | 262° |
| 2026-05-04 18:22 | -4.64415 | 13.41188 | 3038 ft | 186 kts | 262° |
| 2026-05-04 18:22 | -4.64567 | 13.39908 | 3037 ft | 185 kts | 262° |
| 2026-05-04 18:22 | -4.64719 | 13.38628 | 3038 ft | 185 kts | 262° |
| 2026-05-04 18:23 | -4.64872 | 13.37347 | 3037 ft | 185 kts | 262° |
| 2026-05-04 18:23 | -4.65025 | 13.36063 | 3038 ft | 186 kts | 262° |
| 2026-05-04 18:23 | -4.65178 | 13.34777 | 3037 ft | 186 kts | 262° |
| 2026-05-04 18:23 | -4.65330 | 13.33495 | 3029 ft | 184 kts | 262° |
| 2026-05-04 18:24 | -4.65480 | 13.32228 | 3037 ft | 183 kts | 262° |
| 2026-05-04 18:24 | -4.65630 | 13.30974 | 3036 ft | 184 kts | 262° |
| 2026-05-04 18:24 | -4.65782 | 13.29699 | 3036 ft | 184 kts | 262° |
| 2026-05-04 18:24 | -4.65933 | 13.28419 | 3041 ft | 185 kts | 262° |
| 2026-05-04 18:25 | -4.66085 | 13.27139 | 3039 ft | 185 kts | 262° |
| 2026-05-04 18:25 | -4.66239 | 13.25858 | 3041 ft | 186 kts | 262° |
| 2026-05-04 18:25 | -4.66390 | 13.24573 | 3037 ft | 185 kts | 262° |
| 2026-05-04 18:25 | -4.66543 | 13.23296 | 3038 ft | 185 kts | 262° |
| 2026-05-04 18:26 | -4.66694 | 13.22018 | 3040 ft | 185 kts | 262° |
| 2026-05-04 18:26 | -4.66847 | 13.20733 | 3037 ft | 185 kts | 262° |
| 2026-05-04 18:26 | -4.66998 | 13.19453 | 3037 ft | 185 kts | 262° |
| 2026-05-04 18:26 | -4.67151 | 13.18176 | 3038 ft | 185 kts | 262° |
| 2026-05-04 18:27 | -4.67303 | 13.16892 | 3038 ft | 185 kts | 262° |
| 2026-05-04 18:27 | -4.67454 | 13.15614 | 3039 ft | 185 kts | 262° |
| 2026-05-04 18:27 | -4.67606 | 13.14336 | 3040 ft | 185 kts | 262° |
| 2026-05-04 18:27 | -4.67759 | 13.13051 | 3038 ft | 185 kts | 262° |
| 2026-05-04 18:28 | -4.67910 | 13.11774 | 3037 ft | 185 kts | 262° |
| 2026-05-04 18:28 | -4.68062 | 13.10496 | 3036 ft | 184 kts | 262° |
| 2026-05-04 18:28 | -4.68213 | 13.09223 | 3036 ft | 184 kts | 262° |
| 2026-05-04 18:28 | -4.68364 | 13.07944 | 3038 ft | 185 kts | 262° |
| 2026-05-04 18:29 | -4.68516 | 13.06665 | 3038 ft | 185 kts | 262° |
| 2026-05-04 18:29 | -4.68667 | 13.05388 | 3038 ft | 184 kts | 261° |
| 2026-05-04 18:29 | -4.68818 | 13.04116 | 3036 ft | 183 kts | 262° |
| 2026-05-04 18:29 | -4.68968 | 13.02848 | 3034 ft | 183 kts | 262° |
| 2026-05-04 18:30 | -4.69269 | 13.00306 | 3033 ft | 184 kts | 262° |
| 2026-05-04 18:30 | -4.69420 | 12.99030 | 3034 ft | 184 kts | 262° |
| 2026-05-04 18:30 | -4.69571 | 12.97756 | 3034 ft | 184 kts | 262° |
| 2026-05-04 18:31 | -4.69723 | 12.96485 | 3029 ft | 183 kts | 262° |
| 2026-05-04 18:31 | -4.69871 | 12.95217 | 3034 ft | 184 kts | 262° |
| 2026-05-04 18:31 | -4.70022 | 12.93946 | 3034 ft | 184 kts | 262° |
| 2026-05-04 18:31 | -4.70174 | 12.92672 | 3035 ft | 185 kts | 262° |
| 2026-05-04 18:32 | -4.70324 | 12.91389 | 3031 ft | 185 kts | 262° |
| 2026-05-04 18:32 | -4.70477 | 12.90109 | 3028 ft | 185 kts | 261° |
| 2026-05-04 18:32 | -4.70627 | 12.88837 | 3033 ft | 184 kts | 262° |
| 2026-05-04 18:32 | -4.70778 | 12.87556 | 3032 ft | 185 kts | 262° |
| 2026-05-04 18:33 | -4.70930 | 12.86274 | 3037 ft | 186 kts | 262° |
| 2026-05-04 18:33 | -4.71082 | 12.84987 | 3031 ft | 185 kts | 262° |
| 2026-05-04 18:33 | -4.71233 | 12.83710 | 3033 ft | 185 kts | 262° |
| 2026-05-04 18:33 | -4.71384 | 12.82434 | 3031 ft | 184 kts | 262° |
| 2026-05-04 18:34 | -4.71533 | 12.81164 | 3028 ft | 183 kts | 262° |
| 2026-05-04 18:34 | -4.71684 | 12.79892 | 3027 ft | 184 kts | 262° |
| 2026-05-04 18:34 | -4.71832 | 12.78642 | 3027 ft | 183 kts | 262° |
| 2026-05-04 18:34 | -4.71981 | 12.77377 | 3025 ft | 182 kts | 262° |
| 2026-05-04 18:35 | -4.72130 | 12.76116 | 3025 ft | 183 kts | 262° |
| 2026-05-04 18:35 | -4.72279 | 12.74848 | 3025 ft | 184 kts | 262° |
| 2026-05-04 18:35 | -4.72431 | 12.73570 | 3026 ft | 186 kts | 262° |
| 2026-05-04 18:35 | -4.72584 | 12.72282 | 3028 ft | 186 kts | 262° |
| 2026-05-04 18:36 | -4.72735 | 12.70991 | 3032 ft | 187 kts | 262° |
| 2026-05-04 18:36 | -4.72888 | 12.69692 | 3034 ft | 188 kts | 262° |
| 2026-05-04 18:36 | -4.73041 | 12.68394 | 3031 ft | 187 kts | 262° |
| 2026-05-04 18:36 | -4.73194 | 12.67098 | 3031 ft | 187 kts | 262° |
| 2026-05-04 18:37 | -4.73347 | 12.65808 | 3031 ft | 186 kts | 262° |
| 2026-05-04 18:37 | -4.73498 | 12.64520 | 3031 ft | 186 kts | 262° |
| 2026-05-04 18:37 | -4.73651 | 12.63230 | 3030 ft | 186 kts | 262° |
| 2026-05-04 18:37 | -4.73802 | 12.61941 | 3031 ft | 186 kts | 262° |
| 2026-05-04 18:38 | -4.73954 | 12.60653 | 3027 ft | 186 kts | 262° |
| 2026-05-04 18:38 | -4.74106 | 12.59367 | 3027 ft | 186 kts | 262° |
| 2026-05-04 18:38 | -4.74258 | 12.58082 | 3026 ft | 186 kts | 262° |
| 2026-05-04 18:38 | -4.74408 | 12.56796 | 3027 ft | 186 kts | 262° |
| 2026-05-04 18:39 | -4.74561 | 12.55504 | 3025 ft | 187 kts | 262° |
| 2026-05-04 18:39 | -4.74714 | 12.54209 | 3026 ft | 187 kts | 262° |
| 2026-05-04 18:39 | -4.74866 | 12.52913 | 3026 ft | 187 kts | 262° |
| 2026-05-04 18:39 | -4.75018 | 12.51620 | 3025 ft | 187 kts | 262° |
| 2026-05-04 18:40 | -4.75170 | 12.50331 | 3027 ft | 186 kts | 262° |
| 2026-05-04 18:40 | -4.75322 | 12.49043 | 3026 ft | 186 kts | 262° |
| 2026-05-04 18:40 | -4.75473 | 12.47757 | 3020 ft | 186 kts | 262° |
| 2026-05-04 18:40 | -4.75624 | 12.46470 | 3023 ft | 186 kts | 262° |
| 2026-05-04 18:41 | -4.75777 | 12.45177 | 3023 ft | 187 kts | 262° |
| 2026-05-04 18:41 | -4.75929 | 12.43881 | 3023 ft | 187 kts | 262° |
| 2026-05-04 18:41 | -4.76081 | 12.42585 | 3025 ft | 187 kts | 262° |
| 2026-05-04 18:41 | -4.76234 | 12.41289 | 3023 ft | 187 kts | 262° |
| 2026-05-04 18:42 | -4.76386 | 12.39997 | 3019 ft | 187 kts | 262° |
| 2026-05-04 18:42 | -4.76538 | 12.38699 | 3015 ft | 188 kts | 263° |
| 2026-05-04 18:42 | -4.76691 | 12.37395 | 3015 ft | 188 kts | 263° |
| 2026-05-04 18:42 | -4.76845 | 12.36090 | 3015 ft | 189 kts | 263° |
| 2026-05-04 18:43 | -4.76999 | 12.34783 | 3014 ft | 189 kts | 263° |
| 2026-05-04 18:43 | -4.77152 | 12.33478 | 3014 ft | 189 kts | 263° |
| 2026-05-04 18:43 | -4.77305 | 12.32167 | 3011 ft | 189 kts | 263° |
| 2026-05-04 18:43 | -4.77459 | 12.30859 | 3011 ft | 189 kts | 263° |
| 2026-05-04 18:44 | -4.77560 | 12.29993 | 3011 ft | 189 kts | 263° |
| 2026-05-04 18:44 | -4.77662 | 12.29128 | 3011 ft | 189 kts | 263° |
| 2026-05-04 18:44 | -4.77918 | 12.26954 | 3012 ft | 189 kts | 263° |
| 2026-05-04 18:44 | -4.78071 | 12.25646 | 3012 ft | 189 kts | 263° |
| 2026-05-04 18:45 | -4.78224 | 12.24336 | 3012 ft | 189 kts | 263° |
| 2026-05-04 18:45 | -4.78378 | 12.23027 | 3011 ft | 189 kts | 263° |
| 2026-05-04 18:45 | -4.78532 | 12.21719 | 3012 ft | 189 kts | 263° |
| 2026-05-04 18:45 | -4.78635 | 12.20834 | 3011 ft | 189 kts | 263° |
| 2026-05-04 18:46 | -4.78789 | 12.19527 | 3011 ft | 189 kts | 263° |
| 2026-05-04 18:46 | -4.78942 | 12.18219 | 3004 ft | 189 kts | 263° |
| 2026-05-04 18:46 | -4.79096 | 12.16908 | 3003 ft | 189 kts | 263° |
| 2026-05-04 18:46 | -4.79247 | 12.15614 | 3002 ft | 189 kts | 263° |
| 2026-05-04 18:47 | -4.79403 | 12.14287 | 2998 ft | 189 kts | 263° |
| 2026-05-04 18:47 | -4.79423 | 12.12977 | 2996 ft | 189 kts | 284° |
| 2026-05-04 18:47 | -4.78839 | 12.11822 | 2999 ft | 189 kts | 298° |
| 2026-05-04 18:47 | -4.78237 | 12.10648 | 2999 ft | 189 kts | 296° |
| 2026-05-04 18:48 | -4.77648 | 12.09468 | 2999 ft | 189 kts | 296° |
| 2026-05-04 18:48 | -4.77059 | 12.08288 | 2998 ft | 189 kts | 296° |
| 2026-05-04 18:48 | -4.76468 | 12.07108 | 3000 ft | 189 kts | 296° |
| 2026-05-04 18:48 | -4.75878 | 12.05928 | 2999 ft | 189 kts | 296° |
| 2026-05-04 18:49 | -4.75286 | 12.04746 | 2998 ft | 190 kts | 296° |
| 2026-05-04 18:49 | -4.74693 | 12.03565 | 2999 ft | 190 kts | 296° |
| 2026-05-04 18:49 | -4.74101 | 12.02382 | 2998 ft | 190 kts | 296° |
| 2026-05-04 18:49 | -4.73320 | 12.01323 | 2994 ft | 190 kts | 318° |
| 2026-05-04 18:50 | -4.72286 | 12.00495 | 2993 ft | 190 kts | 322° |
| 2026-05-04 18:50 | -4.71241 | 11.99685 | 2994 ft | 190 kts | 322° |
| 2026-05-04 18:50 | -4.70195 | 11.98876 | 2994 ft | 190 kts | 322° |
| 2026-05-04 18:50 | -4.69147 | 11.98065 | 2996 ft | 190 kts | 322° |
| 2026-05-04 18:51 | -4.68102 | 11.97258 | 2991 ft | 190 kts | 322° |
| 2026-05-04 18:51 | -4.67042 | 11.96439 | 2900 ft | 194 kts | 322° |
| 2026-05-04 18:51 | -4.65964 | 11.95609 | 2806 ft | 197 kts | 322° |
| 2026-05-04 18:51 | -4.64875 | 11.94772 | 2708 ft | 197 kts | 322° |
| 2026-05-04 18:52 | -4.63782 | 11.93935 | 2618 ft | 198 kts | 322° |
| 2026-05-04 18:52 | -4.62681 | 11.93100 | 2523 ft | 199 kts | 322° |
| 2026-05-04 18:52 | -4.61583 | 11.92264 | 2428 ft | 198 kts | 320° |
| 2026-05-04 18:52 | -4.60876 | 11.91150 | 2315 ft | 185 kts | 281° |
| 2026-05-04 18:53 | -4.60970 | 11.89924 | 2206 ft | 173 kts | 255° |
| 2026-05-04 18:53 | -4.61245 | 11.88767 | 2103 ft | 169 kts | 255° |
| 2026-05-04 18:53 | -4.61507 | 11.87631 | 2011 ft | 165 kts | 255° |
| 2026-05-04 18:53 | -4.61748 | 11.86530 | 2005 ft | 159 kts | 256° |
| 2026-05-04 18:54 | -4.61986 | 11.85451 | 1997 ft | 157 kts | 255° |
| 2026-05-04 18:54 | -4.62239 | 11.84390 | 1991 ft | 155 kts | 246° |
| 2026-05-04 18:54 | -4.62962 | 11.83665 | 1994 ft | 150 kts | 200° |
| 2026-05-04 18:54 | -4.63984 | 11.83452 | 1995 ft | 151 kts | 184° |
| 2026-05-04 18:55 | -4.65003 | 11.83420 | 1968 ft | 144 kts | 181° |
| 2026-05-04 18:55 | -4.66932 | 11.84130 | 1466 ft | 149 kts | 148° |
| 2026-05-04 18:55 | -4.67655 | 11.84901 | 1132 ft | 156 kts | 134° |
| 2026-05-04 18:56 | -4.68442 | 11.85625 | 917 ft | 149 kts | 141° |
| 2026-05-04 18:56 | -4.69187 | 11.86233 | 800 ft | 129 kts | 149° |
| 2026-05-04 18:56 | -4.69961 | 11.86618 | 818 ft | 120 kts | 161° |
| 2026-05-04 18:56 | -4.70741 | 11.86824 | 859 ft | 113 kts | 169° |
| 2026-05-04 18:57 | -4.71529 | 11.86958 | 861 ft | 115 kts | 171° |
| 2026-05-04 18:57 | -4.72341 | 11.87070 | 853 ft | 118 kts | 171° |
| 2026-05-04 18:57 | -4.73165 | 11.87218 | 782 ft | 122 kts | 169° |
| 2026-05-04 18:57 | -4.74003 | 11.87272 | 809 ft | 119 kts | 181° |
| 2026-05-04 18:58 | -4.74815 | 11.87229 | 838 ft | 115 kts | 187° |
| 2026-05-04 18:58 | -4.75551 | 11.86982 | 858 ft | 111 kts | 201° |
| 2026-05-04 18:58 | -4.76316 | 11.86813 | 788 ft | 113 kts | 193° |
| 2026-05-04 18:58 | -4.77076 | 11.86630 | 778 ft | 112 kts | 189° |
| 2026-05-04 18:59 | -4.77793 | 11.86357 | 766 ft | 111 kts | 202° |
| 2026-05-04 18:59 | -4.78581 | 11.86350 | 638 ft | 124 kts | 159° |
| 2026-05-04 18:59 | -4.79227 | 11.86940 | 603 ft | 127 kts | 133° |
| 2026-05-04 18:59 | -4.79860 | 11.87553 | 584 ft | 131 kts | 144° |
| 2026-05-04 19:00 | -4.80715 | 11.88062 | 693 ft | 155 kts | 156° |
| 2026-05-04 19:00 | -4.81809 | 11.88433 | 733 ft | 176 kts | 165° |
| 2026-05-04 19:00 | -4.83023 | 11.88796 | 763 ft | 186 kts | 165° |
| 2026-05-04 19:00 | -4.84247 | 11.89109 | 845 ft | 179 kts | 168° |
| 2026-05-04 19:01 | -4.85434 | 11.89362 | 1019 ft | 173 kts | 177° |
| 2026-05-04 19:01 | -4.86541 | 11.88987 | 1132 ft | 172 kts | 220° |
| 2026-05-04 19:01 | -4.87072 | 11.87931 | 1237 ft | 177 kts | 262° |
| 2026-05-04 19:01 | -4.86953 | 11.86696 | 1343 ft | 180 kts | 277° |
| 2026-05-04 19:02 | -4.86536 | 11.85510 | 1439 ft | 183 kts | 297° |
| 2026-05-04 19:02 | -4.85667 | 11.84584 | 1535 ft | 185 kts | 322° |
| 2026-05-04 19:02 | -4.84568 | 11.83910 | 1636 ft | 185 kts | 330° |
| 2026-05-04 19:02 | -4.83415 | 11.83324 | 1739 ft | 187 kts | 333° |
| 2026-05-04 19:03 | -4.82225 | 11.82797 | 1834 ft | 187 kts | 336° |
| 2026-05-04 19:03 | -4.81029 | 11.82295 | 1932 ft | 186 kts | 336° |
| 2026-05-04 19:03 | -4.79834 | 11.81792 | 1985 ft | 188 kts | 336° |
| 2026-05-04 19:03 | -4.78615 | 11.81278 | 1985 ft | 191 kts | 336° |
| 2026-05-04 19:04 | -4.77385 | 11.80765 | 1988 ft | 192 kts | 336° |
| 2026-05-04 19:04 | -4.76133 | 11.80307 | 1989 ft | 192 kts | 343° |
| 2026-05-04 19:04 | -4.74841 | 11.79954 | 1995 ft | 193 kts | 344° |
| 2026-05-04 19:04 | -4.73535 | 11.79606 | 1957 ft | 196 kts | 345° |
| 2026-05-04 19:05 | -4.72212 | 11.79604 | 1872 ft | 187 kts | 20° |
| 2026-05-04 19:05 | -4.71175 | 11.80304 | 1795 ft | 177 kts | 48° |
| 2026-05-04 19:05 | -4.70845 | 11.80738 | 1756 ft | 174 kts | 59° |
| 2026-05-04 19:05 | -4.70511 | 11.81408 | 1713 ft | 170 kts | 68° |
| 2026-05-04 19:06 | -4.70047 | 11.82495 | 1633 ft | 168 kts | 69° |
| 2026-05-04 19:06 | -4.69591 | 11.83571 | 1565 ft | 168 kts | 69° |
| 2026-05-04 19:06 | -4.69392 | 11.84694 | 1483 ft | 164 kts | 104° |
| 2026-05-04 19:06 | -4.70004 | 11.85604 | 1408 ft | 161 kts | 148° |
| 2026-05-04 19:07 | -4.71050 | 11.85951 | 1339 ft | 156 kts | 168° |
| 2026-05-04 19:07 | -4.72061 | 11.86182 | 1300 ft | 139 kts | 168° |
| 2026-05-04 19:07 | -4.72950 | 11.86381 | 1283 ft | 121 kts | 168° |
| 2026-05-04 19:07 | -4.73734 | 11.86565 | 1192 ft | 114 kts | 167° |
| 2026-05-04 19:08 | -4.74491 | 11.86776 | 1082 ft | 113 kts | 164° |
| 2026-05-04 19:08 | -4.75242 | 11.87048 | 1022 ft | 114 kts | 162° |
| 2026-05-04 19:08 | -4.75999 | 11.87269 | 901 ft | 112 kts | 166° |
| 2026-05-04 19:08 | -4.76748 | 11.87476 | 757 ft | 111 kts | 166° |
| 2026-05-04 19:09 | -4.77478 | 11.87678 | 658 ft | 108 kts | 167° |
| 2026-05-04 19:09 | -4.78164 | 11.87849 | 545 ft | 94 kts | 167° |
| 2026-05-04 19:09 | -4.78820 | 11.87999 | 430 ft | 99 kts | 169° |
| 2026-05-04 19:09 | -4.79498 | 11.88151 | 307 ft | 99 kts | 169° |
| 2026-05-04 19:10 | -4.80147 | 11.88311 | 155 ft | 92 kts | 170° |
| 2026-05-04 19:10 | -4.80741 | 11.88451 | 67 ft | 82 kts | 169° |
| 2026-05-04 19:10 | -4.81203 | 11.88561 | 53 ft | 58 kts | 166° |
| 2026-05-04 19:10 | -4.81487 | 11.88633 | 52 ft | 33 kts | 164° |
| 2026-05-04 19:11 | -4.81669 | 11.88677 | 51 ft | 28 kts | 167° |
| 2026-05-04 19:11 | -4.81766 | 11.88654 | 52 ft | 14 kts | 256° |
| 2026-05-04 19:11 | -4.81790 | 11.88553 | 52 ft | 14 kts | 258° |
| 2026-05-04 19:11 | -4.81845 | 11.88533 | 53 ft | 9 kts | 199° |
| 2026-05-04 19:12 | -4.81886 | 11.88529 | 53 ft | 0 kts | 166° |